createdAt,value
2022-11-15T00:00:48.958Z,100600.97
2022-11-15T00:03:41.505Z,100462.25
2022-11-15T00:06:28.860Z,100526.34
2022-11-15T00:09:18.846Z,100575.53
2022-11-15T00:12:08.141Z,100334.16
2022-11-15T00:14:55.517Z,100644.03
2022-11-15T00:17:42.435Z,100594.78
2022-11-15T00:20:31.432Z,100586.00
2022-11-15T00:23:19.297Z,100578.94
2022-11-15T00:26:07.491Z,100572.00
2022-11-15T00:28:57.277Z,100582.47
2022-11-15T00:31:46.207Z,100393.78
2022-11-15T00:34:33.891Z,100066.13
2022-11-15T00:37:25.189Z,100651.91
2022-11-15T00:40:14.728Z,100629.91
2022-11-15T00:43:04.218Z,100575.34
2022-11-15T00:45:53.184Z,100356.97
2022-11-15T00:48:41.839Z,100582.38
2022-11-15T00:51:29.089Z,100358.69
2022-11-15T00:54:16.384Z,100519.19
2022-11-15T00:57:03.174Z,100314.88
2022-11-15T00:59:50.388Z,100416.59
2022-11-15T01:02:38.961Z,100563.94
2022-11-15T01:05:27.942Z,100534.97
2022-11-15T01:08:17.274Z,100521.81
2022-11-15T01:11:05.290Z,100563.09
2022-11-15T01:13:52.119Z,100345.53
2022-11-15T01:16:39.216Z,100514.81
2022-11-15T01:19:27.844Z,100487.66
2022-11-15T01:22:14.740Z,100575.31
2022-11-15T01:25:01.789Z,100455.97
2022-11-15T01:27:49.111Z,100168.53
2022-11-15T01:30:35.922Z,100534.84
2022-11-15T01:33:23.043Z,100478.63
2022-11-15T01:36:15.269Z,100535.66
2022-11-15T01:39:02.279Z,100535.56
2022-11-15T01:41:49.100Z,100537.31
2022-11-15T01:44:46.533Z,100419.78
2022-11-15T01:47:37.353Z,100485.47
2022-11-15T01:50:27.987Z,100346.00
2022-11-15T01:53:16.841Z,100512.44
2022-11-15T01:56:07.615Z,100515.88
2022-11-15T01:58:58.085Z,100514.94
2022-11-15T02:01:45.456Z,100512.19
2022-11-15T02:04:36.332Z,100511.19
2022-11-15T02:07:24.442Z,100498.88
2022-11-15T02:10:15.211Z,100507.63
2022-11-15T02:13:03.691Z,100507.47
2022-11-15T02:16:03.306Z,100504.81
2022-11-15T02:18:57.752Z,100496.88
2022-11-15T02:21:53.417Z,100497.53
2022-11-15T02:25:03.331Z,100489.56
2022-11-15T02:28:30.786Z,100486.69
2022-11-15T02:31:30.761Z,100484.78
2022-11-15T02:34:27.572Z,100481.28
2022-11-15T02:37:19.459Z,100474.91
2022-11-15T02:40:13.826Z,100473.84
2022-11-15T02:43:24.356Z,100476.34
2022-11-15T02:46:16.578Z,100462.84
2022-11-15T02:49:04.697Z,100463.72
2022-11-15T02:51:53.942Z,100460.84
2022-11-15T02:54:40.576Z,100459.72
2022-11-15T02:57:41.674Z,100464.81
2022-11-15T03:00:31.880Z,100455.84
2022-11-15T03:03:47.366Z,100466.25
2022-11-15T03:06:43.438Z,100459.03
2022-11-15T03:09:37.700Z,100456.25
2022-11-15T03:12:32.857Z,100454.44
2022-11-15T03:15:25.190Z,100444.63
2022-11-15T03:18:19.545Z,100462.19
2022-11-15T03:21:10.465Z,100450.63
2022-11-15T03:24:02.591Z,100467.41
2022-11-15T03:26:52.023Z,100464.72
2022-11-15T03:29:42.120Z,100451.38
2022-11-15T03:32:33.034Z,100452.06
2022-11-15T03:35:22.777Z,100454.66
2022-11-15T03:38:17.908Z,100448.41
2022-11-15T03:41:13.275Z,100462.56
2022-11-15T03:44:07.358Z,100452.84
2022-11-15T03:47:02.976Z,100456.25
2022-11-15T03:49:54.948Z,100454.56
2022-11-15T03:52:43.328Z,100458.91
2022-11-15T03:55:30.365Z,100457.94
2022-11-15T03:58:18.505Z,100468.56
2022-11-15T04:01:05.342Z,100423.13
2022-11-15T04:03:52.227Z,100464.19
2022-11-15T04:06:39.257Z,100465.78
2022-11-15T04:09:26.269Z,100451.50
2022-11-15T04:12:13.037Z,100325.72
2022-11-15T04:15:10.371Z,100343.16
2022-11-15T04:17:59.038Z,100448.81
2022-11-15T04:21:03.825Z,100440.94
2022-11-15T04:24:08.481Z,100444.38
2022-11-15T04:26:55.315Z,100434.69
2022-11-15T04:29:42.169Z,100433.69
2022-11-15T04:32:30.563Z,100426.53
2022-11-15T04:35:17.548Z,100424.72
2022-11-15T04:38:05.904Z,100438.84
2022-11-15T04:40:52.892Z,100442.34
2022-11-15T04:43:39.519Z,100451.28
2022-11-15T04:46:26.562Z,100451.28
2022-11-15T04:49:15.091Z,100448.75
2022-11-15T04:52:02.018Z,100455.72
2022-11-15T04:54:48.858Z,100459.16
2022-11-15T04:57:35.752Z,100469.72
2022-11-15T05:00:22.756Z,100465.53
2022-11-15T05:03:28.058Z,100461.94
2022-11-15T05:06:16.261Z,100456.72
2022-11-15T05:09:02.897Z,100466.38
2022-11-15T05:11:50.291Z,100472.66
2022-11-15T05:14:37.065Z,100458.53
2022-11-15T05:17:24.103Z,100455.97
2022-11-15T05:20:12.575Z,100473.75
2022-11-15T05:23:01.250Z,100462.28
2022-11-15T05:25:48.078Z,100469.41
2022-11-15T05:28:35.524Z,100457.91
2022-11-15T05:31:22.286Z,100460.56
2022-11-15T05:34:09.246Z,100485.41
2022-11-15T05:36:56.147Z,100466.91
2022-11-15T05:39:44.052Z,100454.41
2022-11-15T05:42:32.714Z,100457.91
2022-11-15T05:45:23.934Z,100454.41
2022-11-15T05:48:14.396Z,100457.06
2022-11-15T05:51:01.533Z,100465.06
2022-11-15T05:53:49.341Z,100452.16
2022-11-15T05:56:37.385Z,100473.16
2022-11-15T05:59:24.132Z,100476.09
2022-11-15T06:02:10.892Z,100478.66
2022-11-15T06:04:57.777Z,100483.19
2022-11-15T06:07:45.196Z,100482.41
2022-11-15T06:10:32.272Z,100484.91
2022-11-15T06:13:20.616Z,100483.19
2022-11-15T06:16:08.319Z,100478.88
2022-11-15T06:18:55.139Z,100487.59
2022-11-15T06:21:41.987Z,100497.44
2022-11-15T06:24:28.991Z,100478.06
2022-11-15T06:27:16.046Z,100477.22
2022-11-15T06:30:04.534Z,100488.69
2022-11-15T06:32:51.416Z,100455.50
2022-11-15T06:35:38.664Z,100482.72
2022-11-15T06:38:25.414Z,100485.41
2022-11-15T06:41:13.767Z,100498.47
2022-11-15T06:44:01.014Z,100504.75
2022-11-15T06:46:49.183Z,100498.69
2022-11-15T06:49:35.952Z,100502.97
2022-11-15T06:52:23.224Z,100496.97
2022-11-15T06:55:11.266Z,100491.69
2022-11-15T06:57:57.903Z,100497.13
2022-11-15T07:00:45.270Z,100507.75
2022-11-15T07:03:34.142Z,100505.88
2022-11-15T07:06:21.101Z,100498.88
2022-11-15T07:09:08.071Z,100465.78
2022-11-15T07:11:55.044Z,100501.59
2022-11-15T07:14:41.915Z,100499.81
2022-11-15T07:17:28.452Z,100503.47
2022-11-15T07:20:17.416Z,100505.19
2022-11-15T07:23:05.313Z,100496.53
2022-11-15T07:25:52.302Z,100481.84
2022-11-15T07:28:39.074Z,100494.31
2022-11-15T07:31:26.535Z,100504.84
2022-11-15T07:34:13.609Z,100497.00
2022-11-15T07:37:01.939Z,100508.38
2022-11-15T07:39:48.930Z,100493.38
2022-11-15T07:42:53.175Z,100504.06
2022-11-15T07:45:44.343Z,100492.75
2022-11-15T07:48:42.801Z,100483.19
2022-11-15T07:51:31.431Z,100457.81
2022-11-15T07:54:19.347Z,100448.13
2022-11-15T07:57:07.810Z,100492.75
2022-11-15T07:59:54.885Z,100477.63
2022-11-15T08:02:42.535Z,100470.22
2022-11-15T08:05:29.690Z,100458.34
2022-11-15T08:08:16.409Z,100471.22
2022-11-15T08:11:05.133Z,100485.28
2022-11-15T08:13:52.512Z,100465.03
2022-11-15T08:16:39.352Z,100482.94
2022-11-15T08:19:26.286Z,100471.47
2022-11-15T08:22:13.084Z,100484.88
2022-11-15T08:25:00.031Z,100469.88
2022-11-15T08:27:48.412Z,100443.00
2022-11-15T08:30:39.323Z,100455.31
2022-11-15T08:33:26.173Z,100450.78
2022-11-15T08:36:17.390Z,100449.13
2022-11-15T08:39:05.388Z,100448.78
2022-11-15T08:41:52.067Z,100451.16
2022-11-15T08:44:40.525Z,100454.78
2022-11-15T08:47:27.521Z,100445.72
2022-11-15T08:50:14.546Z,100447.72
2022-11-15T08:53:08.146Z,100402.66
2022-11-15T08:55:54.830Z,100447.88
2022-11-15T08:58:43.499Z,100461.25
2022-11-15T09:01:31.953Z,100487.34
2022-11-15T09:04:19.261Z,100467.41
2022-11-15T09:07:06.511Z,100468.88
2022-11-15T09:09:53.372Z,100464.56
2022-11-15T09:12:40.437Z,100461.91
2022-11-15T09:15:27.295Z,100481.69
2022-11-15T09:18:15.745Z,100451.84
2022-11-15T09:21:03.812Z,100473.88
2022-11-15T09:23:53.858Z,100456.56
2022-11-15T09:26:40.797Z,100469.31
2022-11-15T09:29:27.731Z,100473.72
2022-11-15T09:32:14.790Z,100454.19
2022-11-15T09:35:03.918Z,100445.38
2022-11-15T09:37:55.925Z,100469.31
2022-11-15T09:40:43.226Z,100469.25
2022-11-15T09:43:42.033Z,100457.59
2022-11-15T09:46:40.322Z,100441.28
2022-11-15T09:49:44.005Z,100433.25
2022-11-15T09:52:29.690Z,100421.91
2022-11-15T09:54:58.040Z,100423.50
2022-11-15T09:57:35.356Z,100414.00
2022-11-15T10:03:15.339Z,100421.19
2022-11-15T10:05:46.554Z,100423.53
2022-11-15T10:08:42.769Z,100429.16
2022-11-15T10:14:06.793Z,100436.03
2022-11-15T10:17:13.444Z,100412.22
2022-11-15T10:19:55.598Z,100403.00
2022-11-15T10:22:30.269Z,100361.34
2022-11-15T10:25:24.573Z,100407.13
2022-11-15T10:27:59.543Z,100388.91
2022-11-15T10:30:36.222Z,100386.13
2022-11-15T10:33:19.420Z,100392.16
2022-11-15T10:35:47.799Z,100370.84
2022-11-15T10:38:16.317Z,100352.44
2022-11-15T10:40:46.157Z,100358.03
2022-11-15T10:43:18.761Z,100406.22
2022-11-15T10:45:48.252Z,100364.19
2022-11-15T10:48:34.603Z,100366.84
2022-11-15T10:51:03.371Z,100362.25
2022-11-15T10:53:41.022Z,100381.31
2022-11-15T10:56:16.993Z,100352.03
2022-11-15T10:58:52.300Z,100358.63
2022-11-15T11:01:24.119Z,100352.91
2022-11-15T11:04:02.248Z,100338.97
2022-11-15T11:06:31.318Z,100344.47
2022-11-15T11:09:02.653Z,100348.88
2022-11-15T11:11:49.801Z,100350.03
2022-11-15T11:14:26.731Z,100329.88
2022-11-15T11:17:03.844Z,100313.69
2022-11-15T11:19:50.740Z,100329.59
2022-11-15T11:22:27.163Z,100305.47
2022-11-15T11:25:09.735Z,100301.16
2022-11-15T11:27:58.774Z,100302.47
2022-11-15T11:30:45.085Z,100308.50
2022-11-15T11:33:19.531Z,100305.00
2022-11-15T11:36:04.426Z,100290.22
2022-11-15T11:39:08.841Z,100287.53
2022-11-15T11:41:57.553Z,100277.97
2022-11-15T11:44:38.983Z,100267.66
2022-11-15T11:47:12.885Z,100247.22
2022-11-15T11:49:47.774Z,100253.91
2022-11-15T11:52:22.874Z,100218.91
2022-11-15T11:55:02.402Z,100246.63
2022-11-15T11:57:41.801Z,100218.13
2022-11-15T12:00:21.787Z,100238.25
2022-11-15T12:03:06.792Z,100233.69
2022-11-15T12:05:40.962Z,100244.59
2022-11-15T12:08:30.630Z,100228.25
2022-11-15T12:11:13.306Z,100216.16
2022-11-15T12:13:44.143Z,100231.13
2022-11-15T12:16:17.913Z,100218.44
2022-11-15T12:18:52.349Z,100205.78
2022-11-15T12:21:29.323Z,100222.69
2022-11-15T12:24:05.095Z,100200.91
2022-11-15T12:26:39.171Z,100198.66
2022-11-15T12:29:14.443Z,100219.66
2022-11-15T12:31:50.680Z,100213.50
2022-11-15T12:34:45.928Z,100205.63
2022-11-15T12:37:49.503Z,100186.47
2022-11-15T12:40:39.732Z,100184.09
2022-11-15T12:43:43.417Z,100184.81
2022-11-15T12:46:50.516Z,100159.53
2022-11-15T12:49:50.506Z,100162.78
2022-11-15T12:52:19.166Z,100150.78
2022-11-15T12:55:00.447Z,100163.09
2022-11-15T12:57:37.481Z,100143.47
2022-11-15T13:00:45.798Z,100152.63
2022-11-15T13:04:09.975Z,100128.56
2022-11-15T13:06:44.237Z,100138.25
2022-11-15T13:09:54.437Z,100146.28
2022-11-15T13:12:57.873Z,100119.53
2022-11-15T13:16:01.195Z,100101.78
2022-11-15T13:18:40.139Z,100097.69
2022-11-15T13:21:46.895Z,100103.94
2022-11-15T13:24:19.304Z,100093.22
2022-11-15T13:26:48.271Z,100117.38
2022-11-15T13:29:21.473Z,100090.22
2022-11-15T13:31:50.555Z,100084.81
2022-11-15T13:37:33.484Z,100064.38
2022-11-15T13:40:31.331Z,100082.41
2022-11-15T13:43:00.366Z,100075.19
2022-11-15T13:45:28.792Z,100046.22
2022-11-15T13:47:59.751Z,100072.63
2022-11-15T13:50:34.711Z,100061.94
2022-11-15T13:53:05.920Z,100042.59
2022-11-15T13:55:36.089Z,100067.47
2022-11-15T13:58:07.663Z,100038.34
2022-11-15T14:00:40.956Z,100025.06
2022-11-15T14:03:18.450Z,100022.47
2022-11-15T14:05:48.801Z,100020.66
2022-11-15T14:08:26.018Z,99972.81
2022-11-15T14:11:15.476Z,100010.41
2022-11-15T14:13:45.031Z,99988.28
2022-11-15T14:16:19.878Z,99960.72
2022-11-15T14:18:51.110Z,99982.00
2022-11-15T14:21:21.503Z,99975.63
2022-11-15T14:23:50.021Z,99960.97
2022-11-15T14:26:35.136Z,99982.53
2022-11-15T14:29:25.123Z,99962.63
2022-11-15T14:31:53.894Z,99968.72
2022-11-15T14:34:23.196Z,99957.91
2022-11-15T14:36:51.697Z,99949.91
2022-11-15T14:39:20.250Z,99963.22
2022-11-15T14:41:49.908Z,99957.94
2022-11-15T14:44:19.535Z,99952.00
2022-11-15T14:46:49.087Z,99936.03
2022-11-15T14:49:17.492Z,99954.56
2022-11-15T14:51:46.065Z,99948.16
2022-11-15T14:54:14.376Z,99975.63
2022-11-15T14:56:43.634Z,99941.78
2022-11-15T14:59:13.415Z,99934.16
2022-11-15T15:01:41.666Z,99927.75
2022-11-15T15:04:12.791Z,99933.00
2022-11-15T15:06:41.159Z,99921.47
2022-11-15T15:09:09.555Z,99927.53
2022-11-15T15:11:37.926Z,99923.03
2022-11-15T15:14:06.244Z,99922.28
2022-11-15T15:16:35.974Z,99921.34
2022-11-15T15:19:04.644Z,99929.91
2022-11-15T15:21:37.163Z,99924.41
2022-11-15T15:24:06.680Z,99937.94
2022-11-15T15:26:37.390Z,99925.84
2022-11-15T15:29:05.902Z,99904.47
2022-11-15T15:31:35.515Z,99904.91
2022-11-15T15:34:04.086Z,99901.59
2022-11-15T15:36:32.493Z,99895.44
2022-11-15T15:39:00.900Z,99900.81
2022-11-15T15:41:29.538Z,99883.53
2022-11-15T15:43:59.122Z,99895.97
2022-11-15T15:46:27.551Z,99890.66
2022-11-15T15:48:57.279Z,99901.34
2022-11-15T15:51:25.785Z,99826.53
2022-11-15T15:53:58.054Z,99885.63
2022-11-15T15:56:26.482Z,99884.25
2022-11-15T15:58:56.410Z,99890.09
2022-11-15T16:01:25.895Z,99886.53
2022-11-15T16:03:54.313Z,99910.63
2022-11-15T16:06:39.154Z,99877.00
2022-11-15T16:09:16.595Z,99877.66
2022-11-15T16:11:47.903Z,99874.31
2022-11-15T16:14:16.020Z,99893.88
2022-11-15T16:16:44.310Z,99872.19
2022-11-15T16:19:13.914Z,99868.72
2022-11-15T16:21:43.700Z,99876.63
2022-11-15T16:24:11.970Z,99887.38
2022-11-15T16:26:40.785Z,99877.44
2022-11-15T16:29:11.207Z,99881.00
2022-11-15T16:31:39.597Z,99880.41
2022-11-15T16:34:08.127Z,99865.47
2022-11-15T16:36:37.330Z,99866.06
2022-11-15T16:39:07.531Z,99856.00
2022-11-15T16:41:35.912Z,99855.78
2022-11-15T16:44:04.186Z,99864.47
2022-11-15T16:46:32.538Z,99873.72
2022-11-15T16:49:00.841Z,99863.91
2022-11-15T16:51:30.193Z,99848.25
2022-11-15T16:53:58.590Z,99874.25
2022-11-15T16:56:31.270Z,99860.09
2022-11-15T16:59:01.869Z,99865.81
2022-11-15T17:01:33.261Z,99833.50
2022-11-15T17:04:12.524Z,99846.38
2022-11-15T17:06:42.167Z,99859.50
2022-11-15T17:09:14.317Z,99838.59
2022-11-15T17:11:44.813Z,99856.72
2022-11-15T17:14:13.893Z,99845.19
2022-11-15T17:16:44.414Z,99843.78
2022-11-15T17:19:17.054Z,99857.81
2022-11-15T17:21:46.541Z,99846.50
2022-11-15T17:24:15.865Z,99818.13
2022-11-15T17:26:45.571Z,99843.53
2022-11-15T17:29:13.939Z,99841.75
2022-11-15T17:31:42.338Z,99844.31
2022-11-15T17:34:10.599Z,99832.69
2022-11-15T17:36:38.888Z,99841.56
2022-11-15T17:39:07.229Z,99830.00
2022-11-15T17:41:35.530Z,99827.34
2022-11-15T17:44:05.814Z,99829.13
2022-11-15T17:46:36.374Z,99842.22
2022-11-15T17:49:04.909Z,99824.09
2022-11-15T17:51:33.291Z,99816.41
2022-11-15T17:54:01.834Z,99832.31
2022-11-15T17:56:31.455Z,99824.22
2022-11-15T17:59:01.719Z,99826.13
2022-11-15T18:01:33.349Z,99813.34
2022-11-15T18:04:03.927Z,99834.63
2022-11-15T18:06:34.481Z,99824.13
2022-11-15T18:09:03.697Z,99825.84
2022-11-15T18:11:34.503Z,99800.72
2022-11-15T18:14:06.262Z,99817.06
2022-11-15T18:16:39.719Z,99783.88
2022-11-15T18:19:13.296Z,99802.81
2022-11-15T18:22:00.598Z,99821.31
2022-11-15T18:24:31.993Z,99803.56
2022-11-15T18:27:01.910Z,99797.44
2022-11-15T18:29:30.165Z,99817.66
2022-11-15T18:32:00.064Z,99693.34
2022-11-15T18:34:32.061Z,99804.91
2022-11-15T18:37:01.423Z,99820.50
2022-11-15T18:39:29.778Z,99795.44
2022-11-15T18:41:58.129Z,99802.28
2022-11-15T18:44:26.509Z,99808.81
2022-11-15T18:46:54.941Z,99796.34
2022-11-15T18:49:24.745Z,99802.56
2022-11-15T18:51:53.215Z,99789.09
2022-11-15T18:54:23.540Z,99786.53
2022-11-15T18:56:53.961Z,99791.72
2022-11-15T18:59:22.329Z,99781.31
2022-11-15T19:01:52.160Z,99790.97
2022-11-15T19:04:22.600Z,99807.78
2022-11-15T19:06:53.490Z,99788.31
2022-11-15T19:09:21.986Z,99798.03
2022-11-15T19:11:51.756Z,99777.47
2022-11-15T19:14:24.088Z,99787.06
2022-11-15T19:16:53.272Z,99775.47
2022-11-15T19:19:25.119Z,99785.25
2022-11-15T19:21:55.364Z,99769.25
2022-11-15T19:24:23.698Z,99778.88
2022-11-15T19:26:52.017Z,99783.28
2022-11-15T19:29:20.528Z,99771.72
2022-11-15T19:31:49.288Z,99759.78
2022-11-15T19:34:17.966Z,99780.69
2022-11-15T19:36:47.404Z,99771.22
2022-11-15T19:39:18.529Z,99777.63
2022-11-15T19:41:47.747Z,99761.97
2022-11-15T19:44:16.314Z,99767.19
2022-11-15T19:46:45.462Z,99750.56
2022-11-15T19:49:14.002Z,99754.06
2022-11-15T19:51:45.067Z,99752.53
2022-11-15T19:54:13.725Z,99745.22
2022-11-15T19:56:43.427Z,99748.94
2022-11-15T19:59:13.561Z,99745.31
2022-11-15T20:01:42.611Z,99740.97
2022-11-15T20:04:11.449Z,99749.13
2022-11-15T20:06:42.396Z,99756.06
2022-11-15T20:09:14.710Z,99756.84
2022-11-15T20:11:45.041Z,99746.22
2022-11-15T20:14:13.918Z,99639.59
2022-11-15T20:16:42.816Z,99745.09
2022-11-15T20:19:12.782Z,99743.00
2022-11-15T20:21:41.289Z,99738.06
2022-11-15T20:24:10.277Z,99741.22
2022-11-15T20:26:39.501Z,99756.53
2022-11-15T20:29:10.024Z,99746.72
2022-11-15T20:31:38.573Z,99757.81
2022-11-15T20:34:07.204Z,99752.59
2022-11-15T20:36:35.480Z,99737.63
2022-11-15T20:39:04.410Z,99732.84
2022-11-15T20:41:32.829Z,99733.56
2022-11-15T20:44:02.958Z,99733.97
2022-11-15T20:46:32.774Z,99723.34
2022-11-15T20:49:01.256Z,99730.66
2022-11-15T20:51:29.561Z,99720.06
2022-11-15T20:53:57.952Z,99722.69
2022-11-15T20:56:26.346Z,99706.59
2022-11-15T20:58:56.431Z,99727.38
2022-11-15T21:01:25.709Z,99691.75
2022-11-15T21:03:56.476Z,99709.69
2022-11-15T21:06:26.241Z,99715.84
2022-11-15T21:09:13.135Z,99725.56
2022-11-15T21:11:59.488Z,99725.09
2022-11-15T21:14:27.784Z,99722.53
2022-11-15T21:16:56.095Z,99727.69
2022-11-15T21:19:31.274Z,99714.31
2022-11-15T21:22:03.192Z,99695.16
2022-11-15T21:24:31.838Z,99710.53
2022-11-15T21:27:00.159Z,99713.25
2022-11-15T21:29:28.592Z,99703.72
2022-11-15T21:31:57.113Z,99698.34
2022-11-15T21:34:26.745Z,99714.31
2022-11-15T21:36:55.140Z,99697.31
2022-11-15T21:39:23.601Z,99702.44
2022-11-15T21:41:51.993Z,99687.47
2022-11-15T21:44:20.388Z,99668.94
2022-11-15T21:46:48.916Z,99678.47
2022-11-15T21:49:17.322Z,99670.38
2022-11-15T21:51:47.009Z,99680.31
2022-11-15T21:54:15.430Z,99681.22
2022-11-15T21:56:44.414Z,99680.09
2022-11-15T21:59:12.730Z,99666.09
2022-11-15T22:02:10.147Z,99665.81
2022-11-15T22:04:38.814Z,99665.13
2022-11-15T22:07:08.561Z,99660.59
2022-11-15T22:09:37.246Z,99649.19
2022-11-15T22:12:05.793Z,99651.72
2022-11-15T22:14:34.161Z,99657.03
2022-11-15T22:17:02.691Z,99649.88
2022-11-15T22:19:31.059Z,99642.50
2022-11-15T22:21:59.415Z,99641.94
2022-11-15T22:24:29.258Z,99655.94
2022-11-15T22:26:57.567Z,99653.97
2022-11-15T22:29:25.914Z,99643.53
2022-11-15T22:31:54.300Z,99655.50
2022-11-15T22:34:22.631Z,99652.78
2022-11-15T22:37:18.702Z,99640.94
2022-11-15T22:39:42.188Z,99645.63
2022-11-15T22:42:10.529Z,99647.56
2022-11-15T22:44:38.827Z,99642.25
2022-11-15T22:47:07.164Z,99646.53
2022-11-15T22:49:35.481Z,99641.44
2022-11-15T22:52:03.829Z,99645.03
2022-11-15T22:54:32.401Z,99632.94
2022-11-15T22:57:02.056Z,99634.41
2022-11-15T22:59:30.429Z,99620.47
2022-11-15T23:01:59.504Z,99622.38
2022-11-15T23:04:27.785Z,99619.94
2022-11-15T23:06:56.367Z,99624.94
2022-11-15T23:09:24.866Z,99634.47
2022-11-15T23:12:10.975Z,99641.72
2022-11-15T23:14:40.991Z,99634.84
2022-11-15T23:17:09.410Z,99639.66
2022-11-15T23:19:37.804Z,99641.44
2022-11-15T23:22:23.587Z,99636.03
2022-11-15T23:24:53.298Z,99628.16
2022-11-15T23:27:21.599Z,99632.44
2022-11-15T23:30:08.922Z,99624.72
2022-11-15T23:33:09.346Z,99622.63
2022-11-15T23:35:37.730Z,99621.47
2022-11-15T23:38:06.133Z,99635.88
2022-11-15T23:40:34.408Z,99627.13
2022-11-15T23:43:02.751Z,99630.56
2022-11-15T23:45:32.398Z,99628.97
2022-11-15T23:48:01.606Z,99639.72
2022-11-15T23:50:30.670Z,99608.81
2022-11-15T23:52:58.926Z,99624.47
2022-11-15T23:55:27.202Z,99622.00
2022-11-15T23:57:57.133Z,99624.47
